createdAt,value
2018-09-17T00:01:27.396Z,5.03
2018-09-17T00:03:56.949Z,4.70
2018-09-17T00:06:25.464Z,4.70
2018-09-17T00:08:53.933Z,5.23
2018-09-17T00:11:22.404Z,4.90
2018-09-17T00:13:50.924Z,4.90
2018-09-17T00:16:19.402Z,5.10
2018-09-17T00:18:47.906Z,4.90
2018-09-17T00:21:16.555Z,5.50
2018-09-17T00:23:45.133Z,4.93
2018-09-17T00:26:13.627Z,5.30
2018-09-17T00:28:42.248Z,4.93
2018-09-17T00:31:10.784Z,5.30
2018-09-17T00:33:39.261Z,4.63
2018-09-17T00:36:07.720Z,4.93
2018-09-17T00:38:36.274Z,4.60
2018-09-17T00:41:04.772Z,5.53
2018-09-17T00:43:33.433Z,4.87
2018-09-17T00:46:01.877Z,5.13
2018-09-17T00:48:30.411Z,5.30
2018-09-17T00:50:58.875Z,4.83
2018-09-17T00:53:27.333Z,5.00
2018-09-17T00:55:55.816Z,5.30
2018-09-17T00:58:24.307Z,4.90
2018-09-17T01:00:52.872Z,4.87
2018-09-17T01:03:21.364Z,5.10
2018-09-17T01:05:49.943Z,4.40
2018-09-17T01:08:18.398Z,5.27
2018-09-17T01:10:46.909Z,4.53
2018-09-17T01:13:15.401Z,4.50
2018-09-17T01:15:43.877Z,4.70
2018-09-17T01:18:12.344Z,4.93
2018-09-17T01:20:40.840Z,4.53
2018-09-17T01:23:09.291Z,4.90
2018-09-17T01:25:37.736Z,4.50
2018-09-17T01:28:06.547Z,4.80
2018-09-17T01:30:35.017Z,4.43
2018-09-17T01:33:03.520Z,4.90
2018-09-17T01:35:32.020Z,4.73
2018-09-17T01:38:00.503Z,4.70
2018-09-17T01:40:28.982Z,4.63
2018-09-17T01:42:57.459Z,4.27
2018-09-17T01:45:26.322Z,4.67
2018-09-17T01:47:54.762Z,5.00
2018-09-17T01:50:23.327Z,5.30
2018-09-17T01:52:51.803Z,4.97
2018-09-17T01:55:20.257Z,5.37
2018-09-17T01:57:48.720Z,5.00
2018-09-17T02:00:17.623Z,5.17
2018-09-17T02:02:46.060Z,5.30
2018-09-17T02:05:14.629Z,5.10
2018-09-17T02:07:43.152Z,5.13
2018-09-17T02:10:11.600Z,5.33
2018-09-17T02:12:40.042Z,5.03
2018-09-17T02:15:08.681Z,5.20
2018-09-17T02:17:37.256Z,5.00
2018-09-17T02:20:05.759Z,5.50
2018-09-17T02:22:34.281Z,5.23
2018-09-17T02:25:02.788Z,5.20
2018-09-17T02:27:31.396Z,4.80
2018-09-17T02:29:59.861Z,4.83
2018-09-17T02:32:28.343Z,5.20
2018-09-17T02:34:56.835Z,5.50
2018-09-17T02:37:25.297Z,4.70
2018-09-17T02:39:53.752Z,4.90
2018-09-17T02:42:22.213Z,4.90
2018-09-17T02:44:50.706Z,5.23
2018-09-17T02:47:19.172Z,5.97
2018-09-17T02:49:47.679Z,5.50
2018-09-17T02:52:16.194Z,5.47
2018-09-17T02:54:44.652Z,4.80
2018-09-17T02:57:13.143Z,5.07
2018-09-17T02:59:41.683Z,4.97
2018-09-17T03:02:10.117Z,4.83
2018-09-17T03:04:38.584Z,5.40
2018-09-17T03:07:07.077Z,4.90
2018-09-17T03:09:35.565Z,5.17
2018-09-17T03:12:05.513Z,5.07
2018-09-17T03:14:33.996Z,4.80
2018-09-17T03:17:12.456Z,5.10
2018-09-17T03:19:41.982Z,5.60
2018-09-17T03:22:10.943Z,5.40
2018-09-17T03:24:39.630Z,5.83
2018-09-17T03:27:08.447Z,5.33
2018-09-17T03:29:37.133Z,5.63
2018-09-17T03:32:05.702Z,5.43
2018-09-17T03:34:34.166Z,5.70
2018-09-17T03:37:02.724Z,5.43
2018-09-17T03:39:31.343Z,5.20
2018-09-17T03:41:59.825Z,5.40
2018-09-17T03:44:28.376Z,5.40
2018-09-17T03:46:56.852Z,5.70
2018-09-17T03:49:25.430Z,6.10
2018-09-17T03:51:53.883Z,6.10
2018-09-17T03:54:22.325Z,5.17
2018-09-17T03:56:50.808Z,5.53
2018-09-17T03:59:19.275Z,5.83
2018-09-17T04:01:47.718Z,4.83
2018-09-17T04:04:16.187Z,5.80
2018-09-17T04:06:44.616Z,5.73
2018-09-17T04:09:13.090Z,5.50
2018-09-17T04:11:41.589Z,5.93
2018-09-17T04:14:10.055Z,5.40
2018-09-17T04:16:38.665Z,5.47
2018-09-17T04:19:07.207Z,5.50
2018-09-17T04:21:35.722Z,5.37
2018-09-17T04:24:04.223Z,4.97
2018-09-17T04:26:32.685Z,5.63
2018-09-17T04:29:01.144Z,5.43
2018-09-17T04:31:29.743Z,5.60
2018-09-17T04:33:58.219Z,4.77
2018-09-17T04:36:26.680Z,5.03
2018-09-17T04:38:55.320Z,5.50
2018-09-17T04:41:23.996Z,5.60
2018-09-17T04:43:53.518Z,5.40
2018-09-17T04:46:22.016Z,5.33
2018-09-17T04:48:50.528Z,5.77
2018-09-17T04:51:19.385Z,5.60
2018-09-17T04:53:47.868Z,5.40
2018-09-17T04:56:16.331Z,5.50
2018-09-17T04:58:44.916Z,5.53
2018-09-17T05:01:13.429Z,5.50
2018-09-17T05:03:41.909Z,5.30
2018-09-17T05:06:10.425Z,5.67
2018-09-17T05:08:38.905Z,5.30
2018-09-17T05:11:07.367Z,5.83
2018-09-17T05:13:36.225Z,5.83
2018-09-17T05:16:04.716Z,6.00
2018-09-17T05:18:33.513Z,6.10
2018-09-17T05:21:02.057Z,6.23
2018-09-17T05:23:30.660Z,5.40
2018-09-17T05:25:59.181Z,5.83
2018-09-17T05:28:27.623Z,5.40
2018-09-17T05:30:56.080Z,5.37
2018-09-17T05:33:24.575Z,5.47
2018-09-17T05:35:53.099Z,5.17
2018-09-17T05:38:21.579Z,5.17
2018-09-17T05:40:50.077Z,5.10
2018-09-17T05:43:18.509Z,5.30
2018-09-17T05:45:47.008Z,5.43
2018-09-17T05:48:15.468Z,5.30
2018-09-17T05:50:43.932Z,5.40
2018-09-17T05:53:12.405Z,5.00
2018-09-17T05:55:40.875Z,5.30
2018-09-17T05:58:09.343Z,5.77
2018-09-17T06:00:37.866Z,5.27
2018-09-17T06:03:06.323Z,5.80
2018-09-17T06:05:34.829Z,5.43
2018-09-17T06:08:03.255Z,5.37
2018-09-17T06:10:31.720Z,5.80
2018-09-17T06:13:00.169Z,6.10
2018-09-17T06:15:28.635Z,5.57
2018-09-17T06:17:57.100Z,6.30
2018-09-17T06:20:25.600Z,6.23
2018-09-17T06:22:54.410Z,6.37
2018-09-17T06:25:22.885Z,6.23
2018-09-17T06:27:51.350Z,6.07
2018-09-17T06:30:19.847Z,6.23
2018-09-17T06:32:48.329Z,6.27
2018-09-17T06:35:17.126Z,6.37
2018-09-17T06:37:45.645Z,6.00
2018-09-17T06:40:14.124Z,6.40
2018-09-17T06:42:42.624Z,6.20
2018-09-17T06:45:11.147Z,6.37
2018-09-17T06:47:39.638Z,6.67
2018-09-17T06:50:08.179Z,6.30
2018-09-17T06:52:36.689Z,7.07
2018-09-17T06:55:05.270Z,7.67
2018-09-17T06:57:33.801Z,7.33
2018-09-17T07:00:02.404Z,7.60
2018-09-17T07:02:30.933Z,8.13
2018-09-17T07:04:59.465Z,7.43
2018-09-17T07:07:27.981Z,7.80
2018-09-17T07:09:56.501Z,8.17
2018-09-17T07:12:25.110Z,8.33
2018-09-17T07:14:53.745Z,8.90
2018-09-17T07:17:22.292Z,8.60
2018-09-17T07:19:50.841Z,7.80
2018-09-17T07:22:19.336Z,8.23
2018-09-17T07:24:47.947Z,8.13
2018-09-17T07:27:16.429Z,8.03
2018-09-17T07:29:44.977Z,8.97
2018-09-17T07:32:13.455Z,7.40
2018-09-17T07:34:42.424Z,8.40
2018-09-17T07:37:11.173Z,8.53
2018-09-17T07:39:39.665Z,7.97
2018-09-17T07:42:08.224Z,8.60
2018-09-17T07:44:36.690Z,8.50
2018-09-17T07:47:05.478Z,9.30
2018-09-17T07:49:33.986Z,8.83
2018-09-17T07:52:02.467Z,8.53
2018-09-17T07:54:30.972Z,8.53
2018-09-17T07:56:59.685Z,8.20
2018-09-17T07:59:28.212Z,7.50
2018-09-17T08:01:56.685Z,7.67
2018-09-17T08:04:25.400Z,8.50
2018-09-17T08:06:53.909Z,7.57
2018-09-17T08:09:22.408Z,7.87
2018-09-17T08:11:51.279Z,7.57
2018-09-17T08:14:19.846Z,7.50
2018-09-17T08:16:48.348Z,7.00
2018-09-17T08:19:16.909Z,6.83
2018-09-17T08:21:45.407Z,6.37
2018-09-17T08:24:13.902Z,7.13
2018-09-17T08:26:42.460Z,6.43
2018-09-17T08:29:10.957Z,6.53
2018-09-17T08:31:39.900Z,6.77
2018-09-17T08:34:08.468Z,5.77
2018-09-17T08:36:36.961Z,6.00
2018-09-17T08:39:09.298Z,5.00
2018-09-17T08:41:38.197Z,5.60
2018-09-17T08:44:06.718Z,6.00
2018-09-17T08:46:35.281Z,5.93
2018-09-17T08:49:03.873Z,5.40
2018-09-17T08:51:32.385Z,5.43
2018-09-17T08:54:00.941Z,5.40
2018-09-17T08:56:35.798Z,4.53
2018-09-17T08:59:09.597Z,4.70
2018-09-17T09:02:43.760Z,5.13
2018-09-17T09:05:17.751Z,4.20
2018-09-17T09:07:51.543Z,3.73
2018-09-17T09:10:26.308Z,3.70
2018-09-17T09:12:56.631Z,3.60
2018-09-17T09:15:30.934Z,3.50
2018-09-17T09:17:59.424Z,3.63
2018-09-17T09:20:27.911Z,3.70
2018-09-17T09:22:56.448Z,3.60
2018-09-17T09:25:25.311Z,3.90
2018-09-17T09:27:53.802Z,3.47
2018-09-17T09:30:22.397Z,3.63
2018-09-17T09:32:50.947Z,3.23
2018-09-17T09:35:19.484Z,3.50
2018-09-17T09:37:48.008Z,3.50
2018-09-17T09:40:16.533Z,3.83
2018-09-17T09:42:45.468Z,3.90
2018-09-17T09:45:14.889Z,3.37
2018-09-17T09:47:43.388Z,4.20
2018-09-17T09:50:11.923Z,4.37
2018-09-17T09:52:40.550Z,3.70
2018-09-17T09:55:09.040Z,3.80
2018-09-17T09:57:37.569Z,4.47
2018-09-17T10:00:11.901Z,4.37
2018-09-17T10:02:46.714Z,3.70
2018-09-17T10:05:15.246Z,3.97
2018-09-17T10:07:43.721Z,3.60
2018-09-17T10:10:17.572Z,3.70
2018-09-17T10:12:51.397Z,4.00
2018-09-17T10:15:55.206Z,3.60
2018-09-17T10:18:28.955Z,4.10
2018-09-17T10:20:57.660Z,3.43
2018-09-17T10:23:26.229Z,3.63
2018-09-17T10:25:54.772Z,2.93
2018-09-17T10:28:23.422Z,2.40
2018-09-17T10:30:53.285Z,2.50
2018-09-17T10:33:21.819Z,2.60
2018-09-17T10:35:50.297Z,3.00
2018-09-17T10:38:18.890Z,2.90
2018-09-17T10:40:47.384Z,2.57
2018-09-17T10:43:16.787Z,2.50
2018-09-17T10:45:46.197Z,2.53
2018-09-17T10:48:15.479Z,2.30
2018-09-17T10:50:44.832Z,2.27
2018-09-17T10:53:14.696Z,2.53
2018-09-17T10:55:47.168Z,2.40
2018-09-17T10:58:19.611Z,2.00
2018-09-17T11:00:51.712Z,2.60
2018-09-17T11:03:25.072Z,2.10
2018-09-17T11:05:59.803Z,1.70
2018-09-17T11:08:34.129Z,1.87
2018-09-17T11:11:06.660Z,1.80
2018-09-17T11:13:35.172Z,2.00
2018-09-17T11:16:04.805Z,1.93
2018-09-17T11:18:33.332Z,1.80
2018-09-17T11:21:01.825Z,2.00
2018-09-17T11:23:30.488Z,2.30
2018-09-17T11:25:59.301Z,2.10
2018-09-17T11:28:27.785Z,1.90
2018-09-17T11:31:02.426Z,2.13
2018-09-17T11:33:31.028Z,2.58
2018-09-17T11:35:59.529Z,2.20
2018-09-17T11:38:28.007Z,2.30
2018-09-17T11:40:56.562Z,2.33
2018-09-17T11:43:25.165Z,2.00
2018-09-17T11:45:53.658Z,2.02
2018-09-17T11:48:22.142Z,1.90
2018-09-17T11:50:50.680Z,2.43
2018-09-17T11:53:19.177Z,1.87
2018-09-17T11:55:47.707Z,2.70
2018-09-17T11:58:16.214Z,2.05
2018-09-17T12:00:50.142Z,2.30
2018-09-17T12:03:23.817Z,1.90
2018-09-17T12:05:57.612Z,1.90
2018-09-17T12:08:26.133Z,2.00
2018-09-17T12:10:54.619Z,1.67
2018-09-17T12:13:23.111Z,2.50
2018-09-17T12:15:51.587Z,2.00
2018-09-17T12:18:20.077Z,1.90
2018-09-17T12:20:48.558Z,2.02
2018-09-17T12:23:17.096Z,2.58
2018-09-17T12:25:45.584Z,1.92
2018-09-17T12:28:14.052Z,2.02
2018-09-17T12:30:42.613Z,1.95
2018-09-17T12:33:11.059Z,1.60
2018-09-17T12:35:39.544Z,1.90
2018-09-17T12:38:08.013Z,1.80
2018-09-17T12:40:36.547Z,1.90
2018-09-17T12:43:05.078Z,2.50
2018-09-17T12:45:33.551Z,1.87
2018-09-17T12:48:02.029Z,2.10
2018-09-17T12:50:30.535Z,1.67
2018-09-17T12:52:59.012Z,1.82
2018-09-17T12:55:27.459Z,1.90
2018-09-17T12:57:55.941Z,2.00
2018-09-17T13:00:24.508Z,1.75
2018-09-17T13:02:52.963Z,2.08
2018-09-17T13:05:21.442Z,2.33
2018-09-17T13:07:49.897Z,2.35
2018-09-17T13:10:18.380Z,2.20
2018-09-17T13:12:46.843Z,2.17
2018-09-17T13:15:15.376Z,1.82
2018-09-17T13:17:43.913Z,2.15
2018-09-17T13:20:12.404Z,2.08
2018-09-17T13:22:40.912Z,2.20
2018-09-17T13:25:09.366Z,2.12
2018-09-17T13:27:37.987Z,1.98
2018-09-17T13:30:07.180Z,2.12
2018-09-17T13:32:35.660Z,2.00
2018-09-17T13:35:04.244Z,2.10
2018-09-17T13:37:32.785Z,1.90
2018-09-17T13:40:01.306Z,1.85
2018-09-17T13:42:29.796Z,2.40
2018-09-17T13:44:58.353Z,2.30
2018-09-17T13:47:26.970Z,2.72
2018-09-17T13:49:55.451Z,1.80
2018-09-17T13:52:23.955Z,2.10
2018-09-17T13:54:52.399Z,2.10
2018-09-17T13:57:20.898Z,2.25
2018-09-17T13:59:49.372Z,2.10
2018-09-17T14:02:17.976Z,2.45
2018-09-17T14:04:46.420Z,2.00
2018-09-17T14:07:14.896Z,2.12
2018-09-17T14:09:43.343Z,2.12
2018-09-17T14:12:11.856Z,2.10
2018-09-17T14:14:40.306Z,2.33
2018-09-17T14:17:08.815Z,2.30
2018-09-17T14:19:37.286Z,2.10
2018-09-17T14:22:05.823Z,2.25
2018-09-17T14:24:34.348Z,2.25
2018-09-17T14:27:02.897Z,2.55
2018-09-17T14:29:31.368Z,2.55
2018-09-17T14:32:05.024Z,2.22
2018-09-17T14:34:33.582Z,2.30
2018-09-17T14:37:02.048Z,2.20
2018-09-17T14:39:30.928Z,2.20
2018-09-17T14:41:59.431Z,2.25
2018-09-17T14:44:27.969Z,2.33
2018-09-17T14:46:56.628Z,2.33
2018-09-17T14:49:25.236Z,2.08
2018-09-17T14:51:53.754Z,2.20
2018-09-17T14:54:22.336Z,2.05
2018-09-17T14:56:50.913Z,2.00
2018-09-17T14:59:19.587Z,2.08
2018-09-17T15:01:48.271Z,2.12
2018-09-17T15:04:16.799Z,2.05
2018-09-17T15:06:45.413Z,2.22
2018-09-17T15:09:14.411Z,2.00
2018-09-17T15:11:43.292Z,2.00
2018-09-17T15:14:12.677Z,1.80
2018-09-17T15:16:41.348Z,1.80
2018-09-17T15:19:09.919Z,1.95
2018-09-17T15:21:38.447Z,1.87
2018-09-17T15:24:07.080Z,2.00
2018-09-17T15:26:35.623Z,2.00
2018-09-17T15:29:04.186Z,2.00
2018-09-17T15:31:32.713Z,2.15
2018-09-17T15:34:01.397Z,2.00
2018-09-17T15:36:29.893Z,2.00
2018-09-17T15:39:00.236Z,2.20
2018-09-17T15:41:28.907Z,2.90
2018-09-17T15:43:58.324Z,2.05
2018-09-17T15:46:26.816Z,2.40
2018-09-17T15:48:55.369Z,1.97
2018-09-17T15:51:26.217Z,2.13
2018-09-17T15:53:54.794Z,2.20
2018-09-17T15:56:23.430Z,1.90
2018-09-17T15:58:51.896Z,2.17
2018-09-17T16:01:20.362Z,2.00
2018-09-17T16:03:48.909Z,2.10
2018-09-17T16:06:17.451Z,2.25
2018-09-17T16:08:46.984Z,2.10
2018-09-17T16:11:15.440Z,2.60
2018-09-17T16:13:44.197Z,2.60
2018-09-17T16:16:12.811Z,2.40
2018-09-17T16:18:45.294Z,2.07
2018-09-17T16:21:13.928Z,2.27
2018-09-17T16:23:42.483Z,2.13
2018-09-17T16:26:11.066Z,2.83
2018-09-17T16:28:39.609Z,2.53
2018-09-17T16:31:08.095Z,2.40
2018-09-17T16:33:42.512Z,14.57
2018-09-17T16:36:11.576Z,4.13
2018-09-17T16:38:40.213Z,2.63
2018-09-17T16:41:08.679Z,3.07
2018-09-17T16:43:37.226Z,3.52
2018-09-17T16:46:05.862Z,3.27
2018-09-17T16:48:34.547Z,3.53
2018-09-17T16:51:03.241Z,2.97
2018-09-17T16:53:31.838Z,3.07
2018-09-17T16:56:00.250Z,2.80
2018-09-17T16:58:28.812Z,3.53
2018-09-17T17:00:57.267Z,2.10
2018-09-17T17:03:27.047Z,2.40
2018-09-17T17:05:55.560Z,2.47
2018-09-17T17:08:24.115Z,2.63
2018-09-17T17:10:52.637Z,11.23
2018-09-17T17:13:21.483Z,5.83
2018-09-17T17:15:51.180Z,5.70
2018-09-17T17:18:20.996Z,7.03
2018-09-17T17:20:49.531Z,5.50
2018-09-17T17:23:18.151Z,6.90
2018-09-17T17:25:46.724Z,4.87
2018-09-17T17:28:15.334Z,4.13
2018-09-17T17:30:44.802Z,4.10
2018-09-17T17:33:13.718Z,3.90
2018-09-17T17:35:43.786Z,3.63
2018-09-17T17:38:13.416Z,3.87
2018-09-17T17:40:42.315Z,3.40
2018-09-17T17:43:10.642Z,3.30
2018-09-17T17:45:39.166Z,3.00
2018-09-17T17:48:07.820Z,3.00
2018-09-17T17:50:36.345Z,2.70
2018-09-17T17:53:04.910Z,2.80
2018-09-17T17:55:33.737Z,2.70
2018-09-17T17:58:02.366Z,2.70
2018-09-17T18:00:30.787Z,2.70
2018-09-17T18:02:59.287Z,2.37
2018-09-17T18:05:27.741Z,2.83
2018-09-17T18:07:57.126Z,3.00
2018-09-17T18:10:25.715Z,2.87
2018-09-17T18:12:54.348Z,2.90
2018-09-17T18:15:22.952Z,3.00
2018-09-17T18:17:51.488Z,3.10
2018-09-17T18:20:20.015Z,2.90
2018-09-17T18:22:49.322Z,2.80
2018-09-17T18:25:17.928Z,2.33
2018-09-17T18:27:46.415Z,2.50
2018-09-17T18:30:14.919Z,2.50
2018-09-17T18:32:43.438Z,2.70
2018-09-17T18:35:11.944Z,2.77
2018-09-17T18:37:40.523Z,2.90
2018-09-17T18:40:09.125Z,2.53
2018-09-17T18:42:37.713Z,2.80
2018-09-17T18:45:06.224Z,2.20
2018-09-17T18:47:35.016Z,2.40
2018-09-17T18:50:03.533Z,2.83
2018-09-17T18:52:32.084Z,2.80
2018-09-17T18:55:01.657Z,3.50
2018-09-17T18:57:30.215Z,2.90
2018-09-17T18:59:58.878Z,2.93
2018-09-17T19:02:27.256Z,3.00
2018-09-17T19:04:55.868Z,2.80
2018-09-17T19:07:24.433Z,3.07
2018-09-17T19:09:53.063Z,3.30
2018-09-17T19:12:21.828Z,2.77
2018-09-17T19:14:55.515Z,3.03
2018-09-17T19:17:29.231Z,3.00
2018-09-17T19:19:57.812Z,3.20
2018-09-17T19:22:31.672Z,2.97
2018-09-17T19:25:00.288Z,3.00
2018-09-17T19:27:34.104Z,3.10
2018-09-17T19:30:02.639Z,3.10
2018-09-17T19:32:31.220Z,3.00
2018-09-17T19:34:59.718Z,3.00
2018-09-17T19:37:33.433Z,3.00
2018-09-17T19:40:07.311Z,2.77
2018-09-17T19:42:35.887Z,2.83
2018-09-17T19:45:09.723Z,3.10
2018-09-17T19:47:38.370Z,3.53
2018-09-17T19:50:11.181Z,3.47
2018-09-17T19:52:39.601Z,3.67
2018-09-17T19:55:08.174Z,3.43
2018-09-17T19:57:41.872Z,3.40
2018-09-17T20:00:10.423Z,3.33
2018-09-17T20:02:38.909Z,3.50
2018-09-17T20:05:12.620Z,3.97
2018-09-17T20:07:41.097Z,3.30
2018-09-17T20:10:09.980Z,3.50
2018-09-17T20:12:38.524Z,3.63
2018-09-17T20:15:07.601Z,3.80
2018-09-17T20:17:36.425Z,3.50
2018-09-17T20:20:05.867Z,3.00
2018-09-17T20:22:34.489Z,3.47
2018-09-17T20:25:03.021Z,3.57
2018-09-17T20:27:31.548Z,3.17
2018-09-17T20:30:00.040Z,3.23
2018-09-17T20:32:28.540Z,3.53
2018-09-17T20:34:57.040Z,3.43
2018-09-17T20:37:25.541Z,3.80
2018-09-17T20:39:54.529Z,4.00
2018-09-17T20:42:23.044Z,4.10
2018-09-17T20:44:51.534Z,3.50
2018-09-17T20:47:20.132Z,4.00
2018-09-17T20:49:48.679Z,3.60
2018-09-17T20:52:17.180Z,3.93
2018-09-17T20:54:45.931Z,3.53
2018-09-17T20:57:14.424Z,4.00
2018-09-17T20:59:43.912Z,3.83
2018-09-17T21:02:12.492Z,4.23
2018-09-17T21:04:40.998Z,3.80
2018-09-17T21:07:09.616Z,3.70
2018-09-17T21:09:38.092Z,4.00
2018-09-17T21:12:06.775Z,3.90
2018-09-17T21:14:35.290Z,3.73
2018-09-17T21:17:03.757Z,3.63
2018-09-17T21:19:32.497Z,4.10
2018-09-17T21:22:00.819Z,3.80
2018-09-17T21:24:30.441Z,3.60
2018-09-17T21:26:58.904Z,3.60
2018-09-17T21:29:27.363Z,3.93
2018-09-17T21:31:55.940Z,4.00
2018-09-17T21:34:24.400Z,4.20
2018-09-17T21:36:53.071Z,4.13
2018-09-17T21:39:21.583Z,4.27
2018-09-17T21:41:52.061Z,4.27
2018-09-17T21:44:20.560Z,3.90
2018-09-17T21:46:49.137Z,4.13
2018-09-17T21:49:17.606Z,4.10
2018-09-17T21:51:46.085Z,3.80
2018-09-17T21:54:14.575Z,4.23
2018-09-17T21:56:43.082Z,4.00
2018-09-17T21:59:11.633Z,4.47
2018-09-17T22:01:40.124Z,3.93
2018-09-17T22:04:09.665Z,4.70
2018-09-17T22:06:38.145Z,4.33
2018-09-17T22:09:07.764Z,4.30
2018-09-17T22:11:38.228Z,4.00
2018-09-17T22:14:06.722Z,3.93
2018-09-17T22:16:35.532Z,4.40
2018-09-17T22:19:04.030Z,4.17
2018-09-17T22:21:32.664Z,4.17
2018-09-17T22:24:01.197Z,4.13
2018-09-17T22:26:29.855Z,4.30
2018-09-17T22:28:58.370Z,4.07
2018-09-17T22:31:26.795Z,4.13
2018-09-17T22:33:55.279Z,4.80
2018-09-17T22:36:23.802Z,4.60
2018-09-17T22:38:52.288Z,4.27
2018-09-17T22:41:21.943Z,4.20
2018-09-17T22:43:50.414Z,4.87
2018-09-17T22:46:19.009Z,4.80
2018-09-17T22:48:47.525Z,4.10
2018-09-17T22:51:16.120Z,4.63
2018-09-17T22:53:44.741Z,5.13
2018-09-17T22:56:13.254Z,4.90
2018-09-17T22:58:41.739Z,4.33
2018-09-17T23:01:10.224Z,4.50
2018-09-17T23:03:38.737Z,4.87
2018-09-17T23:06:07.253Z,4.90
2018-09-17T23:08:35.774Z,4.77
2018-09-17T23:11:04.280Z,5.17
2018-09-17T23:13:33.120Z,4.90
2018-09-17T23:16:01.652Z,4.73
2018-09-17T23:18:30.143Z,4.80
2018-09-17T23:20:58.683Z,4.63
2018-09-17T23:23:27.145Z,5.03
2018-09-17T23:25:55.641Z,4.80
2018-09-17T23:28:24.144Z,5.03
2018-09-17T23:30:52.639Z,4.53
2018-09-17T23:33:21.282Z,4.90
2018-09-17T23:35:50.009Z,4.90
2018-09-17T23:38:18.551Z,4.73
2018-09-17T23:40:47.120Z,4.17
2018-09-17T23:43:15.617Z,4.67
2018-09-17T23:45:44.160Z,4.90
2018-09-17T23:48:12.664Z,5.00
2018-09-17T23:50:41.154Z,5.00
2018-09-17T23:53:09.646Z,5.30
2018-09-17T23:55:38.121Z,4.73
2018-09-17T23:58:06.635Z,4.80
